x

8452944 - Conimicut Light, Ri (cptr1) Weather Station

5:30 - Thu 23rd Feb 2017 All times are EST. -5 hours from GMT.

  • Wind
    15mph, 17mph gusts
  • Sea Temp 41°f
  • Air Temp 43°f
  • Sea Pressure 1009.7mb
  • 8452944 - Conimicut Light, Ri
  • 8452944 - Conimicut Light, Ri

More Historic Weather Station data

Upgrade to MSW Pro to gain access to the past 30 days of data for over 8000 Wavebouys and Weather Stations around the globe.

Join Pro

Comparision Forecast

View Surf forecast
   
jeu. 02/23 5:30 15 17 mph 1009.7mb 41f 43f
5:24 15 16 mph 1009.6mb 41f 44f
5:18 14 16 mph 1009.5mb 41f 44f
5:12 15 16 mph 1009.4mb 41f 44f
5:06 15 16 mph 1009.2mb 41f 45f
5:00 14 16 mph 1009.2mb 41f 44f
4:48 13 14 mph 1009mb 41f 44f
4:42 13 17 mph 1009mb 41f 44f
4:36 17 18 mph 1008.7mb 41f 45f
4:30 17 21 mph 1008.6mb 41f 45f
4:24 16 20 mph 1008.7mb 41f 46f
4:18 21 22 mph 1008.7mb 41f 47f
4:12 22 23 mph 1008.7mb 41f 47f
4:06 23 24 mph 1008.7mb 41f 47f
4:00 24 25 mph 1008.5mb 41f 47f
3:54 21
mph
1008.7mb 41f 47f
3:48 16 18 mph 1008.8mb 41f 47f
3:42 13 16 mph 1008.7mb 41f 47f
3:36 11 15 mph 1008.6mb 41f 46f
3:30 11 15 mph 1008.7mb 41f 46f
3:24 15 16 mph 1008.7mb 41f 46f
3:18 16 20 mph 1008.8mb 41f 46f
3:12 18 20 mph 1008.8mb 41f 46f
3:06 17 18 mph 1008.8mb 41f 46f
3:00 16 18 mph 1008.9mb 41f 45f
2:54 16 18 mph 1009mb 41f 45f
2:48 16 18 mph 1009mb 40f 45f
2:42 16 18 mph 1009mb 40f 45f
2:36 18 20 mph 1008.9mb 40f 47f
2:30 15 21 mph 1009mb 40f 46f
2:24 16 20 mph 1009mb 40f 47f
2:18 16 17 mph 1009mb 40f 47f
2:12 15 16 mph 1009mb 40f 48f
2:06 16 18 mph 1009mb 40f 47f
2:00 17 21 mph 1009mb 40f 46f
1:54 11 18 mph 1009mb 40f 47f
1:48 14 17 mph 1009.1mb 40f 47f
1:42 15 17 mph 1009.1mb 40f 46f
1:36 13 16 mph 1009.1mb 40f 46f
1:30 17 23 mph 1009.1mb 40f 47f
1:24 22 24 mph 1009.2mb 40f 47f
1:18 23 24 mph 1009.2mb 40f 47f
1:12 22 23 mph 1009.2mb 40f 48f
1:06 18 21 mph 1009.3mb 40f 48f
1:00 17 20 mph 1009.4mb 40f 48f
12:54 14 15 mph 1009.6mb 40f 47f
12:48 10 13 mph 1009.7mb 40f 48f
12:42 11 13 mph 1009.8mb 40f 47f
12:36 11 15 mph 1009.9mb 40f 47f
12:30 14 15 mph 1009.9mb 40f 48f
12:24 11 13 mph 1010mb 40f 48f
12:18 10 11 mph 1010.3mb 40f 47f
12:12 11 15 mph 1010.4mb 40f 47f
12:06 15 17 mph 1010.3mb 40f 47f
12:00 16 17 mph 1010.4mb 40f 49f
11:54 16 17 mph 1010.4mb 40f 49f
11:48 16 17 mph 1010.4mb 40f 49f
11:42 14 20 mph 1010.6mb 40f 47f
11:36 18 20 mph 1010.8mb 40f 49f
11:30 18 20 mph 1011mb 40f 49f
11:24 18 20 mph 1011.1mb 40f 48f
11:18 20 22 mph 1011.2mb 40f 48f
11:12 18 20 mph 1011.3mb 40f 47f
11:06 16 20 mph 1011.4mb 40f 46f
11:00 17 18 mph 1011.5mb 40f 47f
10:54 17
mph
1011.6mb 40f 47f
10:48 16 17 mph 1011.7mb 40f 47f
10:42 16 17 mph 1011.7mb 40f 46f
10:36 16 17 mph 1011.7mb 40f 46f
10:30 16 17 mph 1011.7mb 40f 45f
10:24 16
mph
1011.7mb 40f 45f
10:18 13 15 mph 1011.9mb 40f 44f
10:12 9 10 mph 1012mb 40f 45f
10:06 7 8 mph 1012mb 40f 45f
10:00 3 6 mph 1012mb 40f 44f
9:54 3 6 mph 1012mb 40f 43f
9:48 6 8 mph 1012mb 40f 42f
9:42 8 9 mph 1012.1mb 40f 42f
9:36 9 11 mph 1012.2mb 40f 42f
9:30 10 11 mph 1012.1mb 40f 42f
9:24 10 13 mph 1012.1mb 40f 42f
9:18 11 13 mph 1012.1mb 40f 41f
9:12 11 13 mph 1012.1mb 40f 40f
9:06 11
mph
1012.2mb 40f 40f
9:00 10
mph
1012.2mb 40f 40f
8:54 10 11 mph 1012.2mb 39f 40f
8:48 11
mph
1012.3mb 39f 40f
8:42 9 10 mph 1012.3mb 39f 40f
8:36 8 10 mph 1012.3mb 39f 40f
8:30 9 10 mph 1012.3mb 40f 40f
8:24 10 11 mph 1012.2mb 40f 40f
8:18 10 11 mph 1012.2mb 40f 39f
8:12 11 13 mph 1012.2mb 40f 39f
8:06 11 13 mph 1012.2mb 40f 39f
8:00 11
mph
1012.1mb 40f 39f
7:54 11 13 mph 1012.1mb 40f 40f
7:48 13 14 mph 1012mb 40f 40f
7:42 9 10 mph 1012mb 40f 40f
7:36 10
mph
1011.9mb 40f 40f
7:30 9 10 mph 1011.9mb 40f 39f
7:24 8 10 mph 1011.9mb 40f 39f
7:18 10 11 mph 1011.9mb 40f 39f
7:12 10 11 mph 1011.9mb 39f 39f
7:06 9 10 mph 1011.9mb 39f 39f
7:00 10 11 mph 1011.8mb 39f 39f
6:54 10 11 mph 1011.8mb 39f 39f
6:48 11
mph
1011.7mb 39f 39f
6:42 8 9 mph 1011.7mb 39f 39f
6:36 9
mph
1011.8mb 39f 39f
6:30 9
mph
1011.7mb 39f 39f
6:24 7 8 mph 1011.7mb 39f 39f
6:18 6 7 mph 1011.7mb 39f 39f
6:12 5 7 mph 1011.7mb 39f 39f
6:06 7 8 mph 1011.7mb 39f 39f
6:00 7 8 mph 1011.6mb 39f 39f
5:54 6 7 mph 1011.7mb 39f 39f
5:48 6 7 mph 1011.7mb 39f 39f
5:42 7
mph
1011.7mb 39f 39f
5:36 6 9 mph 1011.7mb 39f 39f
5:30 8 10 mph 1011.6mb 39f 39f
5:24 10
mph
1011.6mb 39f 39f
5:18 6 7 mph 1011.6mb 39f 39f
5:12 6 7 mph 1011.7mb 39f 39f
5:06 7 9 mph 1011.7mb 39f 39f
5:00 8 10 mph 1011.7mb 39f 39f
mer. 02/22 5:54 14 15 mph 1012.3mb 40f 43f
5:48 14 15 mph 1012.3mb 40f 43f
4:54 9 10 mph 1012.2mb 40f 45f
4:48 8 9 mph 1012.2mb 40f 44f
3:54 10 11 mph 1011.7mb 39f 45f
3:48 10 11 mph 1011.7mb 39f 45f
2:54 9
mph
1012mb 39f 46f
2:48 8 9 mph 1012.1mb 39f 46f
1:54 6 7 mph 1012.9mb 39f 47f
1:48 6 7 mph 1012.9mb 39f 47f
12:54 5 6 mph 1013.8mb 39f 47f
12:48 6 7 mph 1013.9mb 39f 46f
11:54 3 5 mph 1014.5mb 39f 44f
11:48 5 6 mph 1014.6mb 39f 43f
10:54 6 8 mph 1015.5mb 39f 45f
10:48 7 9 mph 1015.5mb 39f 45f
9:54 9
mph
1016.3mb 39f 44f
9:48 9 11 mph 1016.4mb 39f 44f
8:54 2 3 mph 1016.8mb 38f 41f
8:48 3 5 mph 1016.9mb 38f 41f
7:54 6
mph
1017.3mb 38f 39f
7:48 6 7 mph 1017.4mb 38f 39f
5:54 8 10 mph 1017.3mb 38f 39f
5:48 9 10 mph 1017.3mb 38f 39f
5:42 8 11 mph 1017.5mb 38f 39f
5:36 8 11 mph 1017.5mb 38f 39f
5:30 10 13 mph 1017.4mb 38f 39f
5:24 10 13 mph 1017.4mb 38f 39f
5:18 9 10 mph 1017.4mb 38f 39f
5:12 8 9 mph 1017.5mb 38f 39f
5:06 7 8 mph 1017.5mb 38f 39f
5:00 7 8 mph 1017.6mb 38f 39f
4:54 6 7 mph 1017.6mb 38f 38f
4:48 6 7 mph 1017.6mb 38f 38f
4:42 5 6 mph 1017.5mb 38f 38f
4:36 5
mph
1017.5mb 38f 38f
4:30 5 6 mph 1017.6mb 38f 38f
4:24 5 6 mph 1017.6mb 38f 38f
4:18 7 8 mph 1017.6mb 38f 38f
4:12 8 9 mph 1017.7mb 38f 38f
4:06 8
mph
1017.8mb 38f 38f
4:00 8 9 mph 1018mb 38f 38f
3:54 8 10 mph 1018mb 38f 38f
3:48 8 9 mph 1018.1mb 38f 38f
3:42 8 9 mph 1018.2mb 38f 38f
3:36 8 9 mph 1018.2mb 38f 38f
3:30 8 9 mph 1018.2mb 38f 38f
3:24 8 9 mph 1018.2mb 38f 38f
3:18 8 10 mph 1018.3mb 38f 38f
3:12 7
mph
1018.4mb 38f 38f
3:06 6 7 mph 1018.4mb 38f 38f
3:00 6 7 mph 1018.4mb 38f 38f
2:54 7
mph
1018.4mb 38f 38f
2:48 7 8 mph 1018.4mb 38f 38f
2:42 7 8 mph 1018.3mb 38f 38f
2:36 7 8 mph 1018.3mb 38f 38f
2:30 6 7 mph 1018.5mb 38f 38f
2:24 7 9 mph 1018.5mb 38f 38f
2:18 9 10 mph 1018.4mb 38f 38f
2:12 9 11 mph 1018.4mb 38f 38f
2:06 11 13 mph 1018.3mb 38f 38f
2:00 11
mph
1018.4mb 38f 38f
1:54 10 11 mph 1018.5mb 38f 38f
1:48 10 11 mph 1018.5mb - -
1:42 9 10 mph 1018.8mb - -
1:36 9 11 mph 1019mb - -
1:30 10 11 mph 1018.9mb 38f 38f
1:24 11 13 mph 1019mb 38f 38f
1:18 11 13 mph 1019.1mb 38f 38f
1:12 13 14 mph 1019.1mb 38f 38f
1:06 13 14 mph 1019.1mb 38f 38f
1:00 13 14 mph 1019.4mb 38f 38f
12:54 13 14 mph 1019.4mb 38f 38f
12:48 13 14 mph 1019.4mb 38f 38f
12:42 11 13 mph 1019.5mb 38f 38f
12:36 10 11 mph 1019.8mb 38f 38f
12:30 11
mph
1019.8mb 38f 38f
12:24 10 11 mph 1019.8mb 38f 38f
12:18 10 13 mph 1020mb 38f 38f
12:12 11 14 mph 1020mb 38f 38f
12:06 11 14 mph 1020.2mb 38f 38f
12:00 11 13 mph 1020.2mb 38f 38f
mar. 02/21 11:54 13 14 mph 1020.2mb 38f 38f
11:48 11 13 mph 1020.2mb 38f 38f
11:42 13 14 mph 1020.5mb 38f 38f
11:36 13 14 mph 1020.5mb 38f 38f
11:30 13 14 mph 1020.4mb 38f 38f
11:24 11 13 mph 1020.5mb 38f 38f
11:18 11 13 mph 1020.5mb 38f 38f
11:12 10 11 mph 1020.7mb 38f 38f
11:06 10 11 mph 1020.9mb 38f 38f
11:00 11 13 mph 1021mb 38f 38f
10:54 11 13 mph 1021.2mb 38f 38f
10:48 11 13 mph 1021.2mb 38f 38f
10:42 10 13 mph 1021.2mb 38f 38f
10:36 11 13 mph 1021.3mb 38f 38f
10:30 11 13 mph 1021.4mb 38f 38f
10:24 11 13 mph 1021.6mb 38f 38f
10:18 10 11 mph 1021.7mb 38f 38f
10:12 10 11 mph 1021.7mb 38f 38f
10:06 9 11 mph 1021.9mb 38f 38f
10:00 9 10 mph 1021.9mb 38f 38f
9:54 9 10 mph 1022mb 38f 38f
9:48 8 9 mph 1022.1mb 38f 38f
9:42 9
mph
1022mb 38f 38f
9:36 8 9 mph 1021.8mb 38f 38f
9:30 9
mph
1021.8mb 38f 38f
9:24 9 10 mph 1021.9mb 38f 38f
9:18 9 10 mph 1021.8mb 38f 38f
9:12 10 11 mph 1021.9mb 38f 38f
9:06 10 11 mph 1022mb 38f 38f
9:00 9 10 mph 1022.2mb 38f 38f
8:54 10 11 mph 1022.1mb 38f 38f
8:48 10 11 mph 1022.3mb 38f 38f
8:42 8 10 mph 1022.4mb 38f 38f
8:36 9 11 mph 1022.5mb 38f 38f
8:30 10 13 mph 1022.6mb 38f 38f
8:24 10 13 mph 1022.7mb 38f 38f
8:18 11 13 mph - - -
8:12 13 15 mph 1023.1mb 38f 38f
8:06 11 13 mph 1023.2mb 38f 38f
8:00 11 14 mph 1023.2mb 38f 38f
7:54 13 15 mph 1023.1mb 38f 38f
7:48 14 16 mph 1023.1mb 38f 38f
7:42 15 16 mph 1023.1mb 38f 38f
7:36 15 17 mph 1023mb 38f 38f
7:30 16 18 mph 1022.9mb 38f 38f
7:24 17 18 mph 1022.7mb 38f 38f
7:18 16 17 mph 1022.4mb 38f 38f
7:12 16
mph
1022.8mb 38f 38f
7:06 14 15 mph 1023mb 38f 38f
7:00 14 17 mph 1023.2mb 38f 38f
6:54 16 17 mph 1023.3mb 38f 38f
6:48 15 20 mph 1023mb 38f 38f
6:42 18 21 mph 1022.9mb 38f 38f
6:36 18 20 mph 1022.9mb 38f 38f
6:30 16 20 mph 1023.2mb 38f 38f
6:24 17 20 mph 1023.2mb 38f 38f
6:18 17 18 mph 1023.4mb 38f 38f
6:12 16 18 mph 1023.7mb 38f 38f
6:06 16 18 mph 1023.7mb 38f 38f
6:00 17 18 mph 1023.8mb 38f 38f
5:54 17 18 mph 1023.8mb 38f 38f
5:48 17 20 mph 1023.7mb 38f 38f
5:42 18 20 mph 1023.5mb 38f 38f
5:36 17 20 mph 1023.5mb 38f 38f
5:30 17 20 mph 1023.4mb 38f 38f
5:24 17 20 mph 1023.2mb 38f 38f
5:18 15 18 mph 1023.3mb 38f 38f
5:12 17 18 mph 1023.4mb 38f 38f
5:06 14 16 mph 1023.5mb 38f 38f
5:00 14 15 mph 1023.5mb 38f 38f
4:54 15 17 mph 1023.7mb 38f 38f
4:48 15 17 mph 1023.6mb 38f 38f
4:42 16 18 mph 1023.6mb 38f 38f
4:36 16 17 mph 1023.6mb 38f 38f
4:30 16
mph
1023.6mb 38f 39f
4:24 16 18 mph 1023.7mb 38f 39f
4:18 17 18 mph 1023.6mb 38f 39f
4:12 17 18 mph 1023.6mb 38f 39f
4:06 15 16 mph 1023.7mb 38f 39f
4:00 15 16 mph 1023.8mb 38f 40f
3:54 14 15 mph 1023.7mb 38f 40f
3:48 15 16 mph 1023.8mb 38f 39f
3:42 14 15 mph 1024mb 38f 40f
3:36 15 16 mph 1024mb 38f 40f
3:30 15 16 mph 1024.2mb 38f 40f
3:24 15 16 mph 1024.2mb 38f 40f
3:18 15
mph
1024.3mb 38f 40f
3:12 14
mph
1024.2mb 38f 40f
3:06 13 15 mph 1024.4mb 38f 40f
3:00 15
mph
1024.5mb 38f 40f
2:54 14
mph
1024.4mb 38f 39f
2:48 13 14 mph 1024.5mb 38f 39f
2:42 11 14 mph 1024.6mb 38f 40f
2:36 14 15 mph 1024.5mb 38f 39f
2:30 14 16 mph 1024.8mb 38f 40f
2:24 15 16 mph 1025mb 38f 39f
2:18 14
mph
1024.9mb 38f 40f
2:12 8 9 mph 1024.8mb 38f 40f
2:06 6 7 mph 1024.9mb 38f 40f
2:00 5 6 mph 1025mb 38f 40f
1:54 6
mph
1025mb 38f 40f
1:48 6
mph
1025mb 38f 41f
1:42 6
mph
1025.1mb 38f 41f
1:36 6
mph
1025.2mb 38f 40f
1:30 6
mph
1025.3mb 38f 40f
1:24 6 7 mph 1025.3mb 38f 40f
1:18 7
mph
1025.4mb 38f 39f
1:12 7
mph
1025.6mb 38f 39f
1:06 7 8 mph 1025.7mb 38f 39f
1:00 7 8 mph 1025.8mb 38f 40f
12:54 7
mph
1026mb 38f 39f
12:48 7
mph
1026.2mb 38f 39f
12:42 6 7 mph 1026.5mb 38f 40f
12:36 5 6 mph 1026.6mb 38f 39f
12:30 5
mph
1026.7mb 38f 39f
11:00 6
mph
1028mb 38f 37f
10:54 6
mph
1028mb 38f 37f
10:42 5
mph
1028.1mb 38f 37f
10:36 2 3 mph 1027.9mb 38f 37f
10:30 2 3 mph 1027.9mb 38f 36f
10:24 3
mph
1028mb 38f 36f
10:18 3
mph
1028.1mb 38f 36f
10:12 3
mph
1028.1mb 38f 37f
10:06 1 2 mph 1028.1mb 38f 38f
10:00 1 2 mph 1028.2mb 38f 38f
9:54  -  1 mph 1028.2mb 38f 40f
9:48  -  1 mph 1028.2mb 38f 41f
9:42  -  2 mph 1028.3mb 38f 40f
9:36 1 3 mph 1028.5mb 38f 37f
9:30 3
mph
1028.7mb 37f 35f
9:24 2 3 mph 1028.8mb 37f 39f
9:18 3
mph
1028.9mb 37f 39f
9:12 2 3 mph 1029.1mb 37f 37f
9:06 3 5 mph 1029.1mb 37f 36f
9:00 2 3 mph 1029.1mb 37f 40f
8:54 1 3 mph 1029mb 37f 40f
8:48 2 3 mph 1028.9mb 37f 40f
8:42 3 5 mph 1028.8mb 37f 38f
8:36 3 6 mph 1028.9mb 37f 38f
8:30 5 6 mph 1028.9mb 37f 37f
8:24 6 7 mph 1028.8mb 37f 37f
8:18 6 8 mph 1028.8mb 37f 36f
8:12 7 8 mph 1029mb 37f 35f
8:06 7 8 mph 1028.9mb 37f 35f
8:00 7 8 mph 1028.9mb 37f 35f
7:54 7 9 mph 1029mb 37f 35f
7:48 7 9 mph 1029mb 37f 34f
7:42 8 9 mph 1029mb 37f 33f
7:36 8 9 mph 1029.1mb 37f 32f
7:30 8 9 mph 1029.1mb 37f 31f
7:24 8 9 mph 1029.1mb 37f 30f
7:18 7 8 mph 1029.1mb 37f 30f
7:12 8 9 mph 1029mb 37f 30f
7:06 7 9 mph 1028.9mb 37f 30f
7:00 8 9 mph 1028.9mb 37f 29f
6:54 8 9 mph 1028.9mb 37f 30f
6:48 9
mph
1028.8mb 37f 30f
6:42 8 9 mph 1028.7mb 37f 30f
6:36 8 9 mph 1028.6mb 37f 30f
6:30 8 9 mph 1028.6mb 37f 30f
6:24 7 11 mph 1028.6mb 37f 30f
6:18 10 11 mph 1028.6mb 37f 31f
6:12 9 11 mph 1028.5mb 38f 31f
6:06 11 13 mph 1028.5mb 38f 31f
6:00 9 10 mph 1028.3mb 38f 31f
5:54 9 11 mph 1028.3mb 38f 31f
5:48 8 10 mph 1028.3mb 38f 30f
5:42 8 10 mph 1028.3mb 38f 30f
5:36 8 10 mph 1028.2mb 38f 30f
5:30 9 10 mph 1028mb 38f 31f
5:24 9 10 mph 1028.1mb 38f 31f
5:18 10 11 mph 1028.2mb 38f 31f
5:12 9 11 mph 1028.1mb 38f 31f
5:06 10 13 mph 1028.2mb 38f 31f
5:00 10 13 mph 1028.2mb 38f 31f
4:54 13 14 mph 1028.2mb 38f 31f
4:48 10 13 mph 1028.3mb 38f 31f
4:42 10 11 mph 1028.3mb 38f 31f
4:36 10 14 mph 1028.3mb 38f 31f
4:30 11 13 mph 1028.2mb 38f 31f
4:24 11 13 mph 1028.2mb 38f 31f
4:18 10
mph
1028.1mb 38f 31f
4:12 9 11 mph 1028.1mb 38f 31f
4:06 10 13 mph 1028mb 38f 32f
4:00 10 13 mph 1027.9mb 38f 32f
3:54 11 14 mph 1028mb 38f 32f
3:48 11 13 mph 1028.1mb 38f 32f
3:42 11 13 mph 1028.1mb 38f 32f
3:36 10 13 mph 1028.1mb 38f 33f
3:30 11 14 mph 1028.1mb 38f 33f
3:24 10 11 mph 1028.1mb 38f 33f
3:18 10 13 mph 1028.2mb 38f 33f
3:12 10 13 mph 1028.2mb 38f 33f
3:06 11 15 mph 1028.3mb 38f 33f
3:00 14 15 mph 1028.3mb 38f 33f
2:54 10 13 mph 1028.2mb 38f 33f
2:48 11 13 mph 1028mb 38f 33f
2:42 10 11 mph 1028mb 38f 33f
2:36 10 11 mph 1028mb 38f 33f
2:30 10 13 mph 1028mb 38f 33f
2:24 10 11 mph 1028.1mb 38f 33f
2:18 10 13 mph 1028mb 38f 33f
2:12 8 9 mph 1028mb 38f 33f
2:06 7 9 mph 1028mb 38f 33f
2:00 8 10 mph 1027.7mb 38f 33f
1:54 7 10 mph 1027.6mb 38f 33f
1:48 8 10 mph 1027.6mb 38f 33f
1:42 9 11 mph 1027.5mb 38f 33f
1:36 9 13 mph 1027.5mb 38f 33f
1:30 11 14 mph 1027.5mb 38f 33f
1:24 11 14 mph 1027.6mb 38f 33f
1:18 11 14 mph 1027.7mb 38f 33f
1:12 13 15 mph 1027.6mb 38f 33f
1:06 11 15 mph 1027.7mb 38f 33f
1:00 13 16 mph 1027.7mb 38f 34f
12:54 14 16 mph 1027.5mb 38f 34f
12:48 14 16 mph 1027.5mb 38f -
12:42 13 16 mph 1027.7mb 38f -
12:36 11 15 mph 1027.7mb 38f -
12:30 13 17 mph 1027.8mb 38f 34f
12:24 13 16 mph 1027.8mb 38f 35f
12:18 14 16 mph 1027.8mb 38f 35f
12:12 14 16 mph 1027.9mb 38f 35f
12:06 14 17 mph 1027.9mb 38f 35f
12:00 14 17 mph 1027.9mb 38f 35f
lun. 02/20 11:54 15 17 mph 1027.8mb 38f 35f
11:48 15 18 mph 1027.7mb 38f 35f
11:42 15 20 mph 1027.6mb 38f 35f
11:36 13 16 mph 1027.6mb 38f 36f
11:30 14 17 mph 1027.6mb 38f 36f
11:24 15 18 mph 1027.5mb 38f 36f
11:18 15 18 mph 1027.5mb 39f 36f
11:12 14 18 mph 1027.5mb 39f 36f
11:06 15 20 mph 1027.5mb 39f 36f
11:00 14 17 mph 1027.4mb 39f 37f
10:54 14 17 mph 1027.4mb 39f 37f
10:48 13 15 mph 1027.5mb 39f 37f
10:42 14 16 mph 1027.4mb 39f 37f
10:36 13 17 mph 1027.4mb 39f 37f
10:30 14 17 mph 1027.3mb 39f 37f
10:24 13 14 mph 1027.2mb 39f 37f
10:18 11 14 mph 1027.2mb 39f 37f
10:12 13 15 mph 1027.1mb 39f 37f
10:06 13 14 mph 1027.1mb 39f 37f
10:00 11 13 mph 1027.1mb 39f 37f
9:54 10 11 mph 1027.2mb 39f 37f
9:48 9 10 mph 1027.2mb 39f 37f
9:42 9 10 mph 1027.2mb 39f 38f
9:36 10 13 mph 1027.1mb 39f 38f
9:30 10 13 mph 1027mb 39f 38f
9:24 10 13 mph 1027mb 39f 38f
9:18 11 14 mph 1027mb 39f 38f
9:12 11 13 mph 1026.9mb 39f 38f
9:06 11 14 mph 1026.8mb 39f 38f
9:00 11 13 mph 1026.8mb 39f 38f
8:54 10 11 mph 1026.8mb 39f 38f
8:48 8 10 mph 1026.8mb 39f 38f
8:42 9 11 mph 1026.7mb 39f 38f
8:36 11 15 mph 1026.5mb 39f 38f
8:30 13 16 mph 1026.4mb 39f 38f
8:24 13 16 mph 1026.3mb 39f 38f
8:18 13 15 mph 1026.2mb 39f 39f
8:12 11 15 mph 1026.2mb 39f 39f
8:06 14 15 mph 1026.1mb 39f 39f
8:00 10 13 mph 1026.1mb 39f 39f
7:54 10 11 mph 1026mb 39f 39f
7:48 11 14 mph 1026mb 39f 39f
7:42 10 13 mph 1025.9mb 39f 39f
7:36 11 14 mph 1025.8mb 39f 39f
7:30 11 13 mph 1025.7mb 39f 39f
7:24 11 14 mph 1025.6mb 39f 40f
7:18 14 16 mph 1025.6mb 39f 40f
7:12 13 15 mph 1025.5mb 39f 40f
7:06 11 15 mph 1025.4mb 39f 40f
7:00 14 16 mph 1025.5mb 40f 40f
6:54 13 15 mph 1025.4mb 40f 40f
6:48 13 15 mph 1025.2mb 40f 40f
6:42 11 17 mph 1025.2mb 40f 40f
6:36 11 17 mph 1025.2mb 40f 40f
6:30 11 15 mph 1025.1mb 40f 40f
6:24 10 14 mph 1025.1mb 39f 40f
6:18 11 14 mph 1025mb 39f 40f
6:12 10 13 mph 1025mb 39f 41f
6:06 11 14 mph 1024.9mb 39f 41f
6:00 13 15 mph 1024.7mb 39f 41f
5:54 13 15 mph 1024.5mb 39f 41f
5:48 13 16 mph 1024.3mb 39f 41f
5:42 15 16 mph 1024.1mb 39f 41f
5:36 14 20 mph 1023.9mb 39f 42f
5:30 16 20 mph 1023.7mb 39f 42f
5:24 13 17 mph 1023.5mb 39f 42f
5:18 16 22 mph 1023.3mb 40f 43f
5:12 16 22 mph 1023.1mb 40f 43f
5:06 17 21 mph 1022.8mb 40f 43f
5:00 17 21 mph 1022.6mb 40f 43f
4:54 16 21 mph 1022.5mb 40f 44f
4:48 17 20 mph 1022.3mb 40f 44f
4:42 18 22 mph 1022.1mb 40f 44f
4:36 21 25 mph 1021.9mb 40f 44f
4:30 22 25 mph 1021.7mb 40f 44f
4:24 20 24 mph 1021.6mb 40f 45f
4:18 20 23 mph 1021.5mb 39f 45f
4:12 17 24 mph 1021.4mb 39f 45f
4:06 17 22 mph 1021.4mb 39f 45f
4:00 20 22 mph 1021.4mb 39f 45f
3:54 18 23 mph 1021.2mb 39f 46f
3:48 22 26 mph 1021.1mb 39f 45f
3:42 18 23 mph 1021.1mb 39f 45f
3:36 17 22 mph 1021.1mb 39f 45f
3:30 21 23 mph 1021mb 39f 46f
3:24 20 24 mph 1021mb 39f 46f
3:18 20 22 mph 1021mb 39f 45f
3:12 17 25 mph 1021mb 39f 46f
3:06 23 26 mph 1020.9mb 39f 45f
3:00 20 22 mph 1020.9mb 39f 45f
2:54 22 26 mph 1020.8mb 39f 45f
2:48 21 24 mph 1020.8mb 38f 46f
2:42 20 23 mph 1020.6mb 38f 45f
2:36 22 29 mph 1020.7mb 38f 45f
2:30 17 25 mph 1020.6mb 38f 45f
2:24 21 24 mph 1020.3mb 38f 45f
2:18 18 21 mph 1020.3mb 38f 45f
2:12 14 21 mph 1020.4mb 38f 46f
2:06 21 24 mph 1020.4mb 38f 45f
2:00 21 23 mph 1020.2mb 38f 45f
1:54 17 24 mph 1020.2mb 38f 45f
1:48 18 22 mph 1020.1mb 38f 45f
1:42 17 26 mph 1020.1mb 38f 45f
1:36 14 23 mph 1020mb 38f 45f
1:30 11 20 mph 1020mb 38f 45f
1:24 20 23 mph 1020mb 38f 45f
1:18 10 15 mph 1020.1mb 38f 45f
1:12 17 21 mph 1020.1mb 38f 44f
1:06 20 22 mph 1020.1mb 38f 44f
1:00 18 23 mph 1020.1mb 38f 44f
12:54 21 23 mph 1020.2mb 38f 44f
12:48 16 17 mph 1020.4mb 39f 43f
12:42 15 21 mph 1020.3mb 39f 44f
12:36 17 20 mph 1020.2mb 39f 44f
12:30 14 17 mph 1020.3mb 39f 44f
12:24 15 18 mph 1020.2mb 39f 44f
12:18 13 14 mph 1020.2mb 39f 42f
12:12 10 17 mph 1020.3mb 39f 45f
12:06 15 22 mph 1020.2mb 39f 44f
12:00 16 21 mph 1020.2mb 39f 44f
11:54 17 20 mph 1020.3mb 39f 43f
11:48 15 21 mph 1020.4mb 39f 44f
11:42 14 21 mph 1020.4mb 39f 44f
11:36 18 20 mph 1020.4mb 39f 44f
11:30 17 21 mph 1020.3mb 39f 43f
11:24 14 20 mph 1020.3mb 39f 44f
11:18 15 17 mph 1020.2mb 39f 43f
11:12 16 21 mph 1020.3mb 39f 43f
11:06 14 18 mph 1020.3mb 39f 43f
11:00 14 17 mph 1020.2mb 39f 43f
10:54 14 18 mph 1020.2mb 39f 43f
10:48 10 17 mph 1020.1mb 39f 44f
10:42 16 21 mph 1020.1mb 39f 43f
10:36 18 23 mph 1020.2mb 39f 43f
10:30 18 21 mph 1020.3mb 39f 43f
10:24 18 24 mph 1020.3mb 39f 43f
10:18 20 23 mph 1020.2mb 39f 42f
10:12 20 22 mph 1020.2mb 39f 42f
10:06 22 24 mph 1020.2mb 39f 42f
10:00 23 25 mph 1020.2mb 39f 42f
9:54 20 24 mph 1020.1mb 39f 42f
9:48 18 21 mph 1020.1mb 39f 41f
9:42 17 18 mph 1020mb 39f 41f
9:36 17 20 mph 1020mb 39f 42f
9:30 14 21 mph 1020mb 39f 42f
9:24 16 21 mph 1020mb 39f 42f
9:18 18 22 mph 1020.1mb 39f 42f
9:12 17 21 mph 1020.1mb 39f 42f
9:06 20 24 mph 1020mb 39f 42f
9:00 18 23 mph 1020mb 39f 42f
8:54 16 21 mph 1020.1mb 39f 42f
8:48 17 24 mph 1020.1mb 39f 42f
8:42 18 22 mph 1020mb 39f 41f
8:36 17 20 mph 1020mb 39f 41f
8:30 16 20 mph 1020mb 39f 42f
8:24 16 20 mph 1019.9mb 39f 41f
8:18 15 22 mph 1019.8mb 39f 42f
8:12 16 18 mph 1019.8mb 39f 41f
8:06 14 21 mph 1019.6mb 39f 42f
8:00 15 20 mph 1019.5mb 39f 41f
7:54 15 18 mph 1019.5mb 39f 41f
7:48 13 16 mph 1019.3mb 39f 42f
7:42 13 15 mph 1019.2mb 39f 41f
7:36 13 14 mph 1019mb 39f 42f
7:30 10 13 mph 1018.9mb 39f 42f
7:24 7 10 mph 1018.9mb 38f 42f
7:18 8 10 mph 1018.8mb 38f 41f
7:12 9 10 mph 1018.5mb 38f 41f
7:06 8 10 mph 1018.4mb 38f 41f
7:00 8 9 mph 1018.3mb 38f 40f
6:54 9 11 mph 1018.1mb 39f 40f
6:48 10 11 mph 1018mb 39f 40f
6:42 9 10 mph 1017.8mb 39f 39f
6:36 9 10 mph 1017.7mb 39f 39f
6:30 8 9 mph 1017.6mb 39f 39f
6:24 6 11 mph 1017.5mb 39f 39f
6:18 10 11 mph 1017.4mb 38f 40f
6:12 11
mph
1017.1mb 38f 40f
6:06 11
mph
1017mb 38f 40f
6:00 10 11 mph 1016.8mb 39f 40f
5:54 10 11 mph 1016.8mb 39f 40f
5:48 9 10 mph 1016.7mb 39f 40f
5:42 9 10 mph 1016.7mb 39f 40f
5:36 9 11 mph 1016.6mb 39f 40f
5:30 11 13 mph 1016.6mb 39f 41f
5:24 13
mph
1016.4mb 39f 42f
5:18 10 11 mph 1016.4mb 39f 41f
5:12 11 13 mph 1016.3mb 39f 42f
5:06 11 14 mph 1016.2mb 39f 42f
5:00 13 14 mph 1016.1mb 39f 42f
4:54 13 14 mph 1016mb 39f 42f
4:48 11 14 mph 1015.8mb 39f 42f
4:42 11 13 mph 1015.7mb 39f 41f
4:36 9 11 mph 1015.5mb 39f 41f
4:30 10 13 mph 1015.4mb 39f 42f
4:24 9 10 mph 1015.3mb 39f 43f
4:18 7
mph
1015.2mb 39f 42f
4:12 7 8 mph 1015mb 39f 42f
4:06 8 9 mph 1014.9mb 39f 42f
4:00 8 9 mph 1014.7mb 39f 43f
3:54 8 9 mph 1014.6mb 39f 43f
3:48 8 9 mph 1014.5mb 39f 43f
3:42 8 10 mph 1014.5mb 38f 43f
3:36 9 10 mph 1014.4mb 38f 43f
3:30 9 10 mph 1014.4mb 38f 43f
3:24 10
mph
1014.4mb 38f 43f
3:18 10 13 mph 1014.3mb 38f 42f
3:12 13 14 mph 1014.2mb 38f 43f
3:06 13 14 mph 1014.1mb 38f 43f
3:00 11 13 mph 1014mb 38f 44f
2:54 10 11 mph 1014mb 38f 44f
2:48 10 11 mph 1014mb 38f 44f
2:42 10
mph
1013.9mb 38f 44f
2:36 10 11 mph 1014mb 38f 44f
2:30 10
mph
1014mb 38f 44f
2:24 9 10 mph 1013.9mb 38f 44f
2:18 8 10 mph 1013.8mb 38f 44f
2:12 7 8 mph 1013.7mb 38f 44f
2:06 6 7 mph 1013.6mb 38f 44f
2:00 6 9 mph 1013.5mb 38f 44f
1:54 7 10 mph 1013.6mb 38f 44f
1:48 8 9 mph 1013.6mb 38f 44f
1:42 8 9 mph 1013.6mb 38f 44f
1:36 9 11 mph 1013.6mb 38f 44f
1:30 10 11 mph 1013.5mb 38f 44f
1:24 9 10 mph 1013.4mb 38f 44f
1:18 10 13 mph 1013.3mb 38f 44f
1:12 11 13 mph 1013.2mb 38f 45f
1:06 11 13 mph 1013.2mb 38f 45f
1:00 11 13 mph 1013.1mb 38f 44f
12:54 11 13 mph 1013mb 38f 44f
12:48 10 11 mph 1013mb 38f 44f
12:42 9 11 mph 1013mb 38f 44f
12:36 11 14 mph 1012.9mb 38f 44f
12:30 13 15 mph 1012.9mb 38f 45f
12:24 14 15 mph 1012.7mb 39f 45f
12:18 15 16 mph 1012.6mb 39f 45f
12:12 15 17 mph 1012.6mb 39f 45f
12:06 15 16 mph 1012.5mb 39f 46f
12:00 13 14 mph 1012.6mb 39f 46f
dim. 02/19 11:54 11 13 mph 1012.6mb 39f 45f
11:48 11 13 mph 1012.5mb 39f 46f
11:42 11 13 mph 1012.6mb 39f 45f
11:36 11 13 mph 1012.5mb 39f 46f
11:30 11 13 mph 1012.5mb 39f 46f
11:24 13 14 mph 1012.4mb 39f 46f
11:18 13 16 mph 1012.4mb 39f 46f